createdAt,value
2024-03-05T00:01:51.835Z,20.00
2024-03-05T00:04:54.099Z,19.23
2024-03-05T00:07:56.116Z,18.67
2024-03-05T00:10:58.424Z,17.92
2024-03-05T00:14:01.058Z,20.23
2024-03-05T00:17:03.276Z,11.27
2024-03-05T00:20:05.463Z,19.42
2024-03-05T00:23:07.576Z,24.67
2024-03-05T00:26:14.845Z,14.05
2024-03-05T00:29:17.394Z,18.27
2024-03-05T00:32:19.458Z,13.38
2024-03-05T00:35:21.719Z,15.02
2024-03-05T00:38:28.998Z,11.32
2024-03-05T00:41:35.798Z,15.23
2024-03-05T00:44:37.685Z,15.38
2024-03-05T00:47:39.843Z,15.57
2024-03-05T00:50:41.682Z,21.10
2024-03-05T00:53:43.866Z,17.77
2024-03-05T00:56:45.804Z,26.98
2024-03-05T00:59:49.658Z,14.30
2024-03-05T01:02:52.070Z,12.07
2024-03-05T01:05:54.197Z,17.08
2024-03-05T01:08:56.885Z,16.92
2024-03-05T01:11:59.113Z,15.05
2024-03-05T01:15:01.032Z,13.70
2024-03-05T01:18:03.360Z,16.45
2024-03-05T01:21:07.382Z,13.38
2024-03-05T01:24:10.915Z,17.33
2024-03-05T01:27:12.819Z,26.15
2024-03-05T01:30:15.459Z,24.48
2024-03-05T01:33:24.066Z,18.25
2024-03-05T01:36:26.558Z,22.02
2024-03-05T01:39:29.574Z,21.10
2024-03-05T01:45:34.595Z,16.87
2024-03-05T01:48:36.821Z,11.00
2024-03-05T01:51:38.917Z,15.55
2024-03-05T01:54:41.062Z,15.52
2024-03-05T01:57:44.773Z,20.00
2024-03-05T02:00:47.574Z,12.52
2024-03-05T02:03:49.852Z,19.03
2024-03-05T02:06:54.931Z,15.38
2024-03-05T02:09:57.653Z,15.93
2024-03-05T02:12:59.498Z,16.73
2024-03-05T02:16:01.682Z,12.20
2024-03-05T02:19:06.218Z,17.58
2024-03-05T02:22:08.786Z,16.35
2024-03-05T02:25:11.315Z,14.50
2024-03-05T02:28:13.956Z,10.57
2024-03-05T02:31:16.596Z,14.32
2024-03-05T02:34:18.934Z,12.68
2024-03-05T02:37:23.890Z,15.98
2024-03-05T02:40:26.497Z,10.10
2024-03-05T02:43:28.492Z,15.02
2024-03-05T02:46:30.936Z,15.32
2024-03-05T02:49:32.834Z,10.73
2024-03-05T02:52:34.975Z,12.10
2024-03-05T02:55:40.116Z,18.75
2024-03-05T02:58:43.390Z,13.68
2024-03-05T03:01:48.719Z,23.95
2024-03-05T03:04:52.593Z,13.73
2024-03-05T03:07:54.677Z,9.38
2024-03-05T03:10:57.280Z,12.37
2024-03-05T03:13:59.274Z,14.10
2024-03-05T03:17:01.558Z,12.50
2024-03-05T03:20:04.606Z,15.13
2024-03-05T03:23:06.900Z,16.45
2024-03-05T03:26:10.546Z,18.70
2024-03-05T03:29:13.039Z,14.93
2024-03-05T03:32:15.444Z,17.83
2024-03-05T03:35:18.317Z,16.50
2024-03-05T03:38:20.137Z,13.27
2024-03-05T03:41:22.311Z,13.57
2024-03-05T03:44:24.167Z,13.90
2024-03-05T03:47:26.252Z,19.08
2024-03-05T03:50:28.120Z,14.70
2024-03-05T03:53:32.058Z,15.27
2024-03-05T03:59:37.222Z,11.57
2024-03-05T04:02:39.136Z,12.68
2024-03-05T04:05:41.284Z,15.55
2024-03-05T04:08:43.156Z,12.27
2024-03-05T04:11:45.804Z,12.80
2024-03-05T04:14:47.720Z,20.05
2024-03-05T04:17:50.315Z,11.60
2024-03-05T04:20:52.699Z,16.62
2024-03-05T04:23:55.367Z,11.40
2024-03-05T04:27:03.991Z,13.60
2024-03-05T04:30:11.731Z,18.42
2024-03-05T04:33:16.885Z,16.37
2024-03-05T04:36:19.348Z,13.27
2024-03-05T04:39:22.731Z,15.73
2024-03-05T04:45:27.055Z,12.70
2024-03-05T04:48:29.278Z,14.43
2024-03-05T04:51:31.159Z,12.95
2024-03-05T04:54:35.374Z,17.08
2024-03-05T04:57:37.248Z,17.33
2024-03-05T05:00:39.509Z,14.93
2024-03-05T05:03:44.086Z,14.65
2024-03-05T05:06:46.854Z,16.58
2024-03-05T05:09:48.735Z,17.30
2024-03-05T05:12:50.950Z,19.40
2024-03-05T05:15:52.892Z,17.62
2024-03-05T05:18:55.012Z,13.38
2024-03-05T05:21:56.887Z,25.05
2024-03-05T05:24:59.968Z,16.45
2024-03-05T05:28:01.803Z,18.00
2024-03-05T05:31:04.842Z,13.65
2024-03-05T05:34:06.724Z,16.47
2024-03-05T05:37:08.935Z,16.65
2024-03-05T05:40:12.202Z,13.35
2024-03-05T05:46:17.590Z,19.50
2024-03-05T05:49:22.931Z,17.50
2024-03-05T05:52:24.929Z,22.65
2024-03-05T05:55:27.614Z,16.10
2024-03-05T05:58:30.054Z,21.63
2024-03-05T06:01:34.671Z,13.45
2024-03-05T06:04:39.609Z,21.02
2024-03-05T06:07:41.553Z,18.33
2024-03-05T06:10:43.962Z,18.37
2024-03-05T06:13:46.432Z,19.87
2024-03-05T06:16:48.793Z,19.02
2024-03-05T06:19:51.574Z,19.33
2024-03-05T06:22:53.883Z,19.05
2024-03-05T06:25:55.836Z,20.95
2024-03-05T06:28:59.119Z,19.35
2024-03-05T06:32:01.503Z,24.02
2024-03-05T06:35:03.876Z,20.30
2024-03-05T06:38:07.785Z,21.30
2024-03-05T06:41:11.205Z,26.08
2024-03-05T06:44:15.951Z,28.00
2024-03-05T06:47:24.194Z,23.20
2024-03-05T06:50:34.980Z,20.20
2024-03-05T06:53:55.558Z,20.83
2024-03-05T06:56:57.391Z,26.80
2024-03-05T06:59:59.538Z,29.42
2024-03-05T07:03:01.508Z,20.02
2024-03-05T07:06:08.330Z,20.25
2024-03-05T07:09:12.616Z,25.85
2024-03-05T07:12:16.408Z,24.70
2024-03-05T07:15:18.490Z,24.55
2024-03-05T07:18:21.007Z,23.83
2024-03-05T07:21:24.390Z,21.15
2024-03-05T07:24:30.117Z,24.98
2024-03-05T07:27:32.286Z,25.42
2024-03-05T07:30:34.534Z,26.80
2024-03-05T07:33:46.984Z,27.75
2024-03-05T07:36:50.999Z,27.92
2024-03-05T07:39:52.996Z,28.17
2024-03-05T07:42:55.223Z,26.40
2024-03-05T07:45:57.168Z,23.33
2024-03-05T07:48:59.850Z,21.20
2024-03-05T07:52:01.785Z,22.75
2024-03-05T07:55:05.262Z,23.60
2024-03-05T07:58:09.896Z,28.30
2024-03-05T08:01:12.940Z,25.52
2024-03-05T08:04:15.901Z,28.50
2024-03-05T08:07:17.828Z,26.08
2024-03-05T08:10:20.595Z,27.48
2024-03-05T08:13:23.503Z,27.75
2024-03-05T08:16:26.685Z,26.60
2024-03-05T08:19:30.606Z,33.45
2024-03-05T08:22:33.183Z,26.48
2024-03-05T08:25:35.153Z,34.85
2024-03-05T08:28:37.377Z,29.77
2024-03-05T08:31:40.053Z,31.60
2024-03-05T08:34:43.598Z,30.33
2024-03-05T08:37:49.317Z,31.15
2024-03-05T08:40:51.634Z,30.17
2024-03-05T08:43:53.674Z,28.35
2024-03-05T08:46:55.951Z,29.33
2024-03-05T08:49:58.018Z,31.98
2024-03-05T08:53:00.345Z,31.23
2024-03-05T08:56:02.428Z,33.97
2024-03-05T08:59:07.642Z,32.22
2024-03-05T09:02:11.292Z,35.22
2024-03-05T09:05:14.298Z,33.40
2024-03-05T09:08:16.361Z,29.40
2024-03-05T09:11:19.083Z,29.73
2024-03-05T09:14:22.760Z,31.02
2024-03-05T09:17:25.976Z,27.58
2024-03-05T09:20:34.603Z,26.50
2024-03-05T09:23:43.127Z,25.98
2024-03-05T09:26:45.102Z,30.80
2024-03-05T09:29:47.230Z,27.48
2024-03-05T09:32:49.337Z,32.90
2024-03-05T09:35:51.828Z,24.85
2024-03-05T09:38:53.816Z,28.98
2024-03-05T09:41:55.996Z,29.05
2024-03-05T09:44:57.907Z,27.23
2024-03-05T09:48:00.331Z,32.50
2024-03-05T09:51:02.772Z,32.95
2024-03-05T09:54:07.335Z,28.70
2024-03-05T09:57:09.479Z,28.20
2024-03-05T10:00:18.836Z,29.58
2024-03-05T10:03:21.788Z,23.35
2024-03-05T10:06:24.573Z,22.45
2024-03-05T10:09:26.959Z,24.45
2024-03-05T10:12:29.052Z,20.48
2024-03-05T10:15:31.938Z,24.40
2024-03-05T10:18:37.983Z,24.73
2024-03-05T10:21:41.899Z,21.92
2024-03-05T10:24:43.916Z,24.52
2024-03-05T10:27:47.882Z,19.77
2024-03-05T10:30:59.061Z,22.77
2024-03-05T10:34:01.248Z,25.27
2024-03-05T10:37:03.942Z,19.33
2024-03-05T10:40:09.746Z,18.17
2024-03-05T10:43:11.698Z,20.00
2024-03-05T10:46:14.338Z,22.23
2024-03-05T10:49:18.274Z,22.17
2024-03-05T10:52:22.278Z,16.42
2024-03-05T10:55:25.040Z,18.27
2024-03-05T10:58:53.501Z,20.55
2024-03-05T11:01:57.638Z,23.62
2024-03-05T11:05:01.849Z,20.55
2024-03-05T11:08:05.373Z,15.63
2024-03-05T11:11:12.965Z,18.77
2024-03-05T11:14:15.335Z,18.48
2024-03-05T11:17:17.733Z,18.60
2024-03-05T11:20:41.593Z,17.58
2024-03-05T11:23:53.111Z,18.45
2024-03-05T11:27:12.759Z,17.73
2024-03-05T11:30:19.568Z,15.82
2024-03-05T11:33:25.533Z,15.40
2024-03-05T11:36:28.282Z,14.02
2024-03-05T11:39:30.440Z,13.00
2024-03-05T11:42:33.718Z,12.90
2024-03-05T11:45:45.090Z,11.23
2024-03-05T11:48:47.277Z,11.73
2024-03-05T11:51:49.271Z,10.60
2024-03-05T11:54:58.827Z,9.57
2024-03-05T11:58:02.461Z,11.25
2024-03-05T12:01:06.092Z,9.75
2024-03-05T12:04:10.773Z,10.68
2024-03-05T12:07:13.300Z,11.18
2024-03-05T12:10:20.995Z,9.35
2024-03-05T12:13:23.037Z,10.60
2024-03-05T12:16:25.340Z,10.50
2024-03-05T12:19:27.745Z,11.73
2024-03-05T12:22:30.057Z,7.90
2024-03-05T12:25:33.221Z,8.40
2024-03-05T12:28:35.993Z,10.20
2024-03-05T12:31:38.084Z,8.17
2024-03-05T12:34:44.132Z,9.25
2024-03-05T12:37:47.402Z,13.25
2024-03-05T12:41:00.470Z,9.95
2024-03-05T12:44:02.544Z,10.68
2024-03-05T12:47:14.896Z,12.02
2024-03-05T12:50:19.409Z,10.43
2024-03-05T12:53:21.711Z,10.32
2024-03-05T12:56:23.704Z,11.50
2024-03-05T12:59:26.358Z,12.25
2024-03-05T13:02:28.688Z,16.73
2024-03-05T13:05:32.222Z,13.40
2024-03-05T13:08:35.459Z,11.38
2024-03-05T13:11:38.730Z,12.45
2024-03-05T13:14:41.577Z,12.35
2024-03-05T13:17:43.853Z,14.77
2024-03-05T13:20:45.957Z,12.37
2024-03-05T13:23:48.205Z,13.70
2024-03-05T13:26:50.261Z,13.02
2024-03-05T13:30:01.456Z,12.82
2024-03-05T13:33:12.749Z,16.92
2024-03-05T13:36:15.030Z,20.05
2024-03-05T13:39:23.460Z,15.30
2024-03-05T13:42:26.054Z,18.58
2024-03-05T13:45:28.740Z,19.92
2024-03-05T13:48:34.748Z,18.10
2024-03-05T13:51:36.812Z,20.62
2024-03-05T13:54:39.298Z,19.67
2024-03-05T13:57:41.772Z,17.17
2024-03-05T14:00:44.359Z,17.87
2024-03-05T14:03:46.839Z,15.13
2024-03-05T14:06:52.158Z,17.70
2024-03-05T14:09:57.534Z,17.42
2024-03-05T14:13:00.979Z,19.73
2024-03-05T14:16:07.522Z,16.25
2024-03-05T14:19:09.608Z,14.70
2024-03-05T14:22:12.440Z,19.67
2024-03-05T14:25:14.761Z,19.93
2024-03-05T14:28:16.980Z,21.07
2024-03-05T14:31:19.124Z,18.20
2024-03-05T14:34:24.282Z,19.73
2024-03-05T14:37:26.181Z,19.15
2024-03-05T14:40:28.491Z,19.90
2024-03-05T14:43:30.380Z,18.50
2024-03-05T14:46:34.014Z,19.00
2024-03-05T14:52:37.881Z,19.37
2024-03-05T14:55:39.779Z,16.95
2024-03-05T14:58:42.079Z,15.07
2024-03-05T15:01:44.116Z,23.08
2024-03-05T15:04:46.435Z,18.70
2024-03-05T15:07:48.703Z,16.30
2024-03-05T15:10:51.158Z,23.45
2024-03-05T15:13:53.402Z,14.30
2024-03-05T15:16:55.629Z,22.90
2024-03-05T15:19:57.631Z,15.05
2024-03-05T15:23:00.738Z,19.45
2024-03-05T15:26:03.092Z,18.95
2024-03-05T15:29:05.707Z,16.23
2024-03-05T15:32:07.777Z,17.55
2024-03-05T15:35:11.735Z,18.20
2024-03-05T15:38:14.688Z,16.45
2024-03-05T15:41:17.023Z,19.17
2024-03-05T15:44:19.401Z,23.20
2024-03-05T15:47:21.667Z,25.17
2024-03-05T15:50:26.112Z,18.65
2024-03-05T15:53:29.056Z,18.65
2024-03-05T15:56:58.606Z,20.77
2024-03-05T16:00:12.849Z,16.00
2024-03-05T16:06:19.425Z,25.45
2024-03-05T16:09:21.937Z,19.90
2024-03-05T16:12:25.215Z,17.12
2024-03-05T16:15:28.015Z,18.77
2024-03-05T16:18:30.192Z,19.43
2024-03-05T16:21:34.945Z,14.07
2024-03-05T16:24:37.111Z,19.87
2024-03-05T16:27:45.841Z,20.52
2024-03-05T16:30:49.409Z,19.37
2024-03-05T16:33:51.451Z,22.30
2024-03-05T16:36:53.673Z,20.85
2024-03-05T16:39:55.884Z,16.08
2024-03-05T16:42:58.551Z,19.60
2024-03-05T16:46:01.145Z,21.83
2024-03-05T16:49:04.848Z,20.30
2024-03-05T16:52:07.746Z,18.80
2024-03-05T16:55:13.749Z,20.70
2024-03-05T16:58:19.003Z,22.17
2024-03-05T17:01:23.580Z,18.60
2024-03-05T17:10:35.379Z,25.67
2024-03-05T17:13:43.921Z,17.52
2024-03-05T17:16:47.748Z,19.70
2024-03-05T17:19:50.150Z,20.52
2024-03-05T17:22:53.199Z,19.50
2024-03-05T17:25:58.850Z,18.23
2024-03-05T17:29:06.670Z,18.10
2024-03-05T17:32:10.806Z,24.98
2024-03-05T17:38:15.176Z,20.35
2024-03-05T17:41:17.334Z,22.95
2024-03-05T17:44:19.925Z,19.15
2024-03-05T17:47:21.904Z,23.12
2024-03-05T17:50:25.826Z,22.15
2024-03-05T17:56:31.327Z,21.67
2024-03-05T17:59:33.804Z,17.58
2024-03-05T18:02:36.548Z,18.73
2024-03-05T18:05:38.838Z,22.20
2024-03-05T18:08:40.792Z,18.00
2024-03-05T18:11:43.096Z,20.77
2024-03-05T18:14:46.285Z,18.55
2024-03-05T18:17:50.042Z,19.62
2024-03-05T18:23:58.582Z,22.10
2024-03-05T18:27:05.098Z,24.63
2024-03-05T18:30:08.989Z,30.88
2024-03-05T18:33:12.764Z,24.20
2024-03-05T18:36:17.033Z,20.75
2024-03-05T18:39:23.113Z,25.90
2024-03-05T18:42:25.497Z,27.45
2024-03-05T18:45:32.662Z,25.27
2024-03-05T18:48:35.082Z,21.05
2024-03-05T18:51:36.966Z,16.80
2024-03-05T18:54:40.436Z,17.25
2024-03-05T18:57:45.370Z,22.75
2024-03-05T19:00:51.053Z,22.65
2024-03-05T19:03:58.918Z,27.95
2024-03-05T19:07:07.473Z,21.48
2024-03-05T19:10:10.316Z,23.15
2024-03-05T19:13:12.481Z,18.10
2024-03-05T19:16:15.991Z,20.52
2024-03-05T19:19:18.187Z,20.50
2024-03-05T19:22:20.336Z,20.65
2024-03-05T19:25:23.349Z,27.48
2024-03-05T19:28:26.185Z,17.90
2024-03-05T19:31:28.464Z,18.42
2024-03-05T19:34:30.709Z,22.27
2024-03-05T19:37:32.980Z,18.90
2024-03-05T19:40:34.912Z,18.45
2024-03-05T19:43:40.704Z,22.35
2024-03-05T19:46:43.777Z,19.23
2024-03-05T19:49:46.166Z,22.83
2024-03-05T19:52:48.199Z,17.58
2024-03-05T19:55:50.368Z,20.30
2024-03-05T19:58:52.511Z,21.02
2024-03-05T20:01:55.041Z,23.20
2024-03-05T20:04:57.395Z,19.12
2024-03-05T20:07:59.418Z,19.90
2024-03-05T20:11:01.931Z,18.75
2024-03-05T20:14:06.003Z,13.88
2024-03-05T20:17:08.574Z,21.17
2024-03-05T20:20:16.637Z,17.58
2024-03-05T20:23:19.727Z,18.80
2024-03-05T20:26:22.121Z,19.33
2024-03-05T20:29:24.435Z,23.33
2024-03-05T20:32:30.218Z,17.60
2024-03-05T20:35:32.527Z,16.30
2024-03-05T20:38:34.475Z,16.85
2024-03-05T20:41:37.684Z,13.32
2024-03-05T20:44:40.214Z,14.93
2024-03-05T20:47:42.610Z,13.27
2024-03-05T20:50:47.701Z,25.27
2024-03-05T20:53:50.416Z,17.67
2024-03-05T20:56:53.216Z,17.58
2024-03-05T21:00:00.838Z,20.12
2024-03-05T21:03:03.886Z,17.45
2024-03-05T21:06:06.279Z,18.70
2024-03-05T21:09:08.553Z,18.37
2024-03-05T21:12:12.797Z,22.60
2024-03-05T21:15:16.037Z,21.95
2024-03-05T21:21:20.131Z,18.42
2024-03-05T21:24:24.578Z,20.23
2024-03-05T21:27:27.262Z,19.23
2024-03-05T21:30:30.015Z,15.98
2024-03-05T21:33:31.970Z,14.75
2024-03-05T21:36:34.409Z,16.75
2024-03-05T21:39:36.395Z,21.15
2024-03-05T21:42:40.360Z,17.50
2024-03-05T21:48:45.167Z,13.10
2024-03-05T21:51:47.725Z,18.02
2024-03-05T21:54:49.917Z,13.00
2024-03-05T21:57:52.102Z,16.60
2024-03-05T22:00:54.816Z,16.58
2024-03-05T22:03:57.742Z,10.52
2024-03-05T22:06:59.822Z,15.43
2024-03-05T22:10:07.266Z,16.73
2024-03-05T22:13:09.396Z,14.98
2024-03-05T22:16:11.765Z,17.75
2024-03-05T22:19:14.374Z,16.02
2024-03-05T22:22:16.860Z,15.43
2024-03-05T22:25:18.922Z,16.20
2024-03-05T22:28:22.128Z,15.43
2024-03-05T22:31:24.793Z,18.57
2024-03-05T22:34:27.101Z,18.83
2024-03-05T22:37:30.066Z,14.20
2024-03-05T22:40:33.109Z,16.15
2024-03-05T22:43:35.137Z,19.13
2024-03-05T22:46:37.548Z,19.50
2024-03-05T22:49:39.646Z,19.77
2024-03-05T22:52:42.235Z,27.13
2024-03-05T22:55:44.287Z,15.77
2024-03-05T22:58:47.160Z,22.62
2024-03-05T23:01:49.277Z,21.00
2024-03-05T23:04:51.669Z,17.27
2024-03-05T23:07:53.908Z,23.60
2024-03-05T23:10:56.471Z,20.62
2024-03-05T23:13:58.932Z,18.90
2024-03-05T23:17:01.487Z,20.57
2024-03-05T23:20:05.728Z,25.50
2024-03-05T23:23:08.490Z,15.07
2024-03-05T23:26:10.626Z,13.13
2024-03-05T23:29:13.012Z,15.10
2024-03-05T23:32:15.170Z,20.75
2024-03-05T23:35:18.553Z,17.53
2024-03-05T23:38:22.090Z,19.98
2024-03-05T23:44:33.350Z,19.60
2024-03-05T23:47:35.762Z,16.30
2024-03-05T23:50:37.697Z,15.68
2024-03-05T23:53:40.242Z,21.65
2024-03-05T23:56:42.199Z,21.67
2024-03-05T23:59:45.743Z,17.00
